createdAt,value
2018-07-06T00:02:08.892Z,19.60
2018-07-06T00:04:48.318Z,19.10
2018-07-06T00:07:27.556Z,19.30
2018-07-06T00:10:06.796Z,17.52
2018-07-06T00:12:46.135Z,18.10
2018-07-06T00:15:25.565Z,15.32
2018-07-06T00:18:04.895Z,15.38
2018-07-06T00:20:44.152Z,15.48
2018-07-06T00:23:23.636Z,14.50
2018-07-06T00:25:57.192Z,14.15
2018-07-06T00:28:36.214Z,14.53
2018-07-06T00:31:15.874Z,13.70
2018-07-06T00:33:55.305Z,15.23
2018-07-06T00:36:34.644Z,16.67
2018-07-06T00:39:14.074Z,15.08
2018-07-06T00:41:53.420Z,14.85
2018-07-06T00:44:32.626Z,15.90
2018-07-06T00:47:12.092Z,15.50
2018-07-06T00:49:51.367Z,15.83
2018-07-06T00:52:30.664Z,16.23
2018-07-06T00:55:10.076Z,15.63
2018-07-06T00:57:50.536Z,15.90
2018-07-06T01:00:29.901Z,16.10
2018-07-06T01:03:09.552Z,16.05
2018-07-06T01:05:48.879Z,14.63
2018-07-06T01:08:29.241Z,15.98
2018-07-06T01:11:08.789Z,15.72
2018-07-06T01:13:48.345Z,16.90
2018-07-06T01:16:27.776Z,15.65
2018-07-06T01:19:07.211Z,16.37
2018-07-06T01:21:46.531Z,14.65
2018-07-06T01:24:25.695Z,15.15
2018-07-06T01:27:04.817Z,14.30
2018-07-06T01:29:44.153Z,13.73
2018-07-06T01:32:23.480Z,13.78
2018-07-06T01:35:02.920Z,12.80
2018-07-06T01:37:42.285Z,13.75
2018-07-06T01:40:21.624Z,14.60
2018-07-06T01:43:00.927Z,14.58
2018-07-06T01:45:40.290Z,14.60
2018-07-06T01:48:19.708Z,13.90
2018-07-06T01:50:59.079Z,13.28
2018-07-06T01:53:38.368Z,13.75
2018-07-06T01:56:17.779Z,14.55
2018-07-06T01:58:56.941Z,14.15
2018-07-06T02:01:36.436Z,14.03
2018-07-06T02:04:15.620Z,14.90
2018-07-06T02:06:54.877Z,15.05
2018-07-06T02:09:34.101Z,15.20
2018-07-06T02:12:13.541Z,15.88
2018-07-06T02:14:52.986Z,16.23
2018-07-06T02:17:32.115Z,17.10
2018-07-06T02:20:11.420Z,16.23
2018-07-06T02:22:50.733Z,14.78
2018-07-06T02:25:30.104Z,14.73
2018-07-06T02:28:09.363Z,9.90
2018-07-06T02:30:48.712Z,10.43
2018-07-06T02:33:28.145Z,8.53
2018-07-06T02:36:07.396Z,8.68
2018-07-06T02:38:46.815Z,8.38
2018-07-06T02:41:26.044Z,10.27
2018-07-06T02:44:05.291Z,9.60
2018-07-06T02:46:44.536Z,7.28
2018-07-06T02:49:23.867Z,7.22
2018-07-06T02:52:03.297Z,6.70
2018-07-06T02:54:42.640Z,6.28
2018-07-06T02:57:23.899Z,6.67
2018-07-06T03:00:04.628Z,5.30
2018-07-06T03:02:45.473Z,5.75
2018-07-06T03:05:20.185Z,5.03
2018-07-06T03:08:01.454Z,4.90
2018-07-06T03:10:42.735Z,4.10
2018-07-06T03:13:23.529Z,3.67
2018-07-06T03:16:04.657Z,5.60
2018-07-06T03:18:47.421Z,4.20
2018-07-06T03:21:28.861Z,6.95
2018-07-06T03:24:09.844Z,4.42
2018-07-06T03:26:51.389Z,4.67
2018-07-06T03:29:32.588Z,5.10
2018-07-06T03:32:14.064Z,6.78
2018-07-06T03:34:55.420Z,5.70
2018-07-06T03:37:36.907Z,5.80
2018-07-06T03:40:18.079Z,7.28
2018-07-06T03:42:57.432Z,7.00
2018-07-06T03:45:36.544Z,7.00
2018-07-06T03:48:15.908Z,6.80
2018-07-06T03:50:55.148Z,6.40
2018-07-06T03:53:34.481Z,6.10
2018-07-06T03:56:13.828Z,5.65
2018-07-06T03:58:53.057Z,5.80
2018-07-06T04:01:32.532Z,6.10
2018-07-06T04:04:11.749Z,6.00
2018-07-06T04:06:51.161Z,6.20
2018-07-06T04:09:30.424Z,5.78
2018-07-06T04:12:09.863Z,6.15
2018-07-06T04:14:49.183Z,6.55
2018-07-06T04:17:28.717Z,6.00
2018-07-06T04:20:07.964Z,6.40
2018-07-06T04:22:47.195Z,5.50
2018-07-06T04:25:26.624Z,5.70
2018-07-06T04:28:05.976Z,6.30
2018-07-06T04:30:45.207Z,5.47
2018-07-06T04:33:24.542Z,5.85
2018-07-06T04:36:03.994Z,5.87
2018-07-06T04:38:43.330Z,5.20
2018-07-06T04:41:22.552Z,6.20
2018-07-06T04:44:01.797Z,6.25
2018-07-06T04:46:41.220Z,5.10
2018-07-06T04:49:20.431Z,6.10
2018-07-06T04:51:53.768Z,5.70
2018-07-06T04:54:33.168Z,4.90
2018-07-06T04:57:12.225Z,4.90
2018-07-06T04:59:51.475Z,4.65
2018-07-06T05:02:30.898Z,5.10
2018-07-06T05:05:10.144Z,5.53
2018-07-06T05:07:49.513Z,4.72
2018-07-06T05:10:29.047Z,5.45
2018-07-06T05:13:08.331Z,4.50
2018-07-06T05:15:47.597Z,4.72
2018-07-06T05:18:27.157Z,4.57
2018-07-06T05:21:06.392Z,4.92
2018-07-06T05:23:45.709Z,5.60
2018-07-06T05:26:25.168Z,5.33
2018-07-06T05:29:04.280Z,5.50
2018-07-06T05:31:43.517Z,4.53
2018-07-06T05:34:22.985Z,3.85
2018-07-06T05:37:02.388Z,4.40
2018-07-06T05:39:41.725Z,3.90
2018-07-06T05:42:20.866Z,3.98
2018-07-06T05:44:59.921Z,4.10
2018-07-06T05:47:39.284Z,4.60
2018-07-06T05:50:12.716Z,4.30
2018-07-06T05:52:52.080Z,4.70
2018-07-06T05:55:31.306Z,5.20
2018-07-06T05:58:10.545Z,5.00
2018-07-06T06:00:49.972Z,5.10
2018-07-06T06:03:29.309Z,5.33
2018-07-06T06:06:08.654Z,4.67
2018-07-06T06:08:35.398Z,5.30
2018-07-06T06:11:03.571Z,5.13
2018-07-06T06:13:31.624Z,6.55
2018-07-06T06:15:59.708Z,6.65
2018-07-06T06:18:27.843Z,4.80
2018-07-06T06:20:56.066Z,5.28
2018-07-06T06:23:24.255Z,5.03
2018-07-06T06:25:52.300Z,5.25
2018-07-06T06:28:20.373Z,5.30
2018-07-06T06:30:48.748Z,5.55
2018-07-06T06:33:17.054Z,5.67
2018-07-06T06:35:45.742Z,6.10
2018-07-06T06:38:13.893Z,5.70
2018-07-06T06:40:42.095Z,7.03
2018-07-06T06:43:10.153Z,6.37
2018-07-06T06:45:38.524Z,6.70
2018-07-06T06:48:06.818Z,6.40
2018-07-06T06:50:35.354Z,7.60
2018-07-06T06:53:03.290Z,8.10
2018-07-06T06:55:31.396Z,7.70
2018-07-06T06:57:59.726Z,7.10
2018-07-06T07:00:27.883Z,6.58
2018-07-06T07:02:56.095Z,6.10
2018-07-06T07:05:24.268Z,6.85
2018-07-06T07:07:52.952Z,6.53
2018-07-06T07:10:21.179Z,6.20
2018-07-06T07:12:48.969Z,6.20
2018-07-06T07:15:17.159Z,6.30
2018-07-06T07:17:45.421Z,5.58
2018-07-06T07:20:13.599Z,5.50
2018-07-06T07:22:41.672Z,5.47
2018-07-06T07:25:09.935Z,6.20
2018-07-06T07:27:38.365Z,5.75
2018-07-06T07:30:06.446Z,6.83
2018-07-06T07:32:34.680Z,6.80
2018-07-06T07:35:02.877Z,6.45
2018-07-06T07:37:30.929Z,6.80
2018-07-06T07:39:59.216Z,8.00
2018-07-06T07:42:27.475Z,6.30
2018-07-06T07:44:55.881Z,6.62
2018-07-06T07:47:24.414Z,5.70
2018-07-06T07:49:52.508Z,6.90
2018-07-06T07:52:31.578Z,7.40
2018-07-06T07:54:59.936Z,6.90
2018-07-06T07:57:28.224Z,7.58
2018-07-06T07:59:56.604Z,6.30
2018-07-06T08:02:24.780Z,6.50
2018-07-06T08:04:53.648Z,6.10
2018-07-06T08:07:21.533Z,5.80
2018-07-06T08:09:49.797Z,6.03
2018-07-06T08:12:18.088Z,6.15
2018-07-06T08:14:46.253Z,5.50
2018-07-06T08:17:14.343Z,5.60
2018-07-06T08:19:42.443Z,5.78
2018-07-06T08:22:10.466Z,5.90
2018-07-06T08:24:38.786Z,6.20
2018-07-06T08:27:07.039Z,6.10
2018-07-06T08:29:35.215Z,6.00
2018-07-06T08:32:03.284Z,6.42
2018-07-06T08:34:42.531Z,5.80
2018-07-06T08:37:26.595Z,7.70
2018-07-06T08:39:55.632Z,10.15
2018-07-06T08:42:24.827Z,7.40
2018-07-06T08:44:53.142Z,8.33
2018-07-06T08:47:21.876Z,8.28
2018-07-06T08:49:50.325Z,8.15
2018-07-06T08:52:18.851Z,8.48
2018-07-06T08:54:47.342Z,7.25
2018-07-06T08:57:15.446Z,7.95
2018-07-06T08:59:43.623Z,7.25
2018-07-06T09:02:12.092Z,7.97
2018-07-06T09:04:40.293Z,8.03
2018-07-06T09:07:08.167Z,7.65
2018-07-06T09:09:36.323Z,7.08
2018-07-06T09:12:04.408Z,7.90
2018-07-06T09:14:32.753Z,7.00
2018-07-06T09:17:00.669Z,7.25
2018-07-06T09:19:28.752Z,6.37
2018-07-06T09:21:56.692Z,5.70
2018-07-06T09:24:24.898Z,5.30
2018-07-06T09:26:52.921Z,7.70
2018-07-06T09:29:20.816Z,10.08
2018-07-06T09:31:48.892Z,11.30
2018-07-06T09:34:17.056Z,11.20
2018-07-06T09:36:45.275Z,10.43
2018-07-06T09:39:13.623Z,14.47
2018-07-06T09:41:41.688Z,16.52
2018-07-06T09:44:09.890Z,15.85
2018-07-06T09:46:38.179Z,16.35
2018-07-06T09:49:06.924Z,19.50
2018-07-06T09:51:35.021Z,20.80
2018-07-06T09:54:03.084Z,24.98
2018-07-06T09:56:31.164Z,28.02
2018-07-06T09:58:59.748Z,22.25
2018-07-06T10:01:30.683Z,21.40
2018-07-06T10:04:01.711Z,24.55
2018-07-06T10:06:32.730Z,24.12
2018-07-06T10:09:04.202Z,19.15
2018-07-06T10:11:34.866Z,20.13
2018-07-06T10:40:28.399Z,12.60
2018-07-06T10:43:01.312Z,16.32
2018-07-06T10:45:33.423Z,23.33
2018-07-06T10:48:05.531Z,26.20
2018-07-06T10:50:33.688Z,32.25
2018-07-06T10:53:02.083Z,34.23
2018-07-06T10:55:30.104Z,35.68
2018-07-06T10:57:58.308Z,24.92
2018-07-06T11:00:26.405Z,28.67
2018-07-06T11:02:54.558Z,26.70
2018-07-06T11:22:22.224Z,23.63
2018-07-06T11:24:50.401Z,22.75
2018-07-06T11:27:21.680Z,22.20
2018-07-06T11:29:55.589Z,23.70
2018-07-06T11:32:26.578Z,24.20
2018-07-06T11:34:56.863Z,25.30
2018-07-06T11:37:27.450Z,25.90
2018-07-06T11:39:59.039Z,25.02
2018-07-06T11:42:27.856Z,24.35
2018-07-06T11:44:56.200Z,27.02
2018-07-06T11:47:24.360Z,28.17
2018-07-06T11:49:52.629Z,26.50
2018-07-06T11:52:20.928Z,24.80
2018-07-06T11:54:51.268Z,30.35
2018-07-06T11:57:21.568Z,34.70
2018-07-06T11:59:49.980Z,35.07
2018-07-06T12:02:18.029Z,38.45
2018-07-06T12:04:46.210Z,36.08
2018-07-06T12:07:14.468Z,36.53
2018-07-06T12:09:42.868Z,34.98
2018-07-06T12:12:10.937Z,35.85
2018-07-06T12:14:39.041Z,34.43
2018-07-06T12:17:07.177Z,37.85
2018-07-06T12:19:35.330Z,37.45
2018-07-06T12:22:04.089Z,41.93
2018-07-06T12:24:31.999Z,40.25
2018-07-06T12:27:00.303Z,38.78
2018-07-06T12:29:28.380Z,39.98
2018-07-06T12:31:56.411Z,39.88
2018-07-06T12:34:24.577Z,38.17
2018-07-06T12:36:52.406Z,33.98
2018-07-06T12:39:20.528Z,30.62
2018-07-06T12:41:48.795Z,26.93
2018-07-06T12:44:17.917Z,31.45
2018-07-06T12:46:46.213Z,27.48
2018-07-06T12:49:14.273Z,29.02
2018-07-06T12:51:42.488Z,33.83
2018-07-06T12:54:10.718Z,27.45
2018-07-06T12:56:39.037Z,28.95
2018-07-06T12:59:07.069Z,28.65
2018-07-06T13:01:35.422Z,30.75
2018-07-06T13:04:03.766Z,25.30
2018-07-06T13:06:31.913Z,34.10
2018-07-06T13:09:00.000Z,31.95
2018-07-06T13:11:28.070Z,28.05
2018-07-06T13:13:56.368Z,36.55
2018-07-06T13:16:24.428Z,43.05
2018-07-06T13:18:52.597Z,42.48
2018-07-06T13:21:20.761Z,42.67
2018-07-06T13:23:49.073Z,48.38
2018-07-06T13:26:17.686Z,44.35
2018-07-06T13:28:47.425Z,41.60
2018-07-06T13:31:15.767Z,39.98
2018-07-06T13:33:43.986Z,38.10
2018-07-06T13:36:12.424Z,38.92
2018-07-06T13:38:40.796Z,39.33
2018-07-06T13:41:09.039Z,41.40
2018-07-06T13:43:37.564Z,39.18
2018-07-06T13:46:05.777Z,38.08
2018-07-06T13:48:33.806Z,37.80
2018-07-06T13:51:01.844Z,38.55
2018-07-06T13:53:30.018Z,37.50
2018-07-06T13:55:58.072Z,40.23
2018-07-06T13:58:26.291Z,37.55
2018-07-06T14:00:54.519Z,39.23
2018-07-06T14:03:22.866Z,33.60
2018-07-06T14:05:50.902Z,34.38
2018-07-06T14:08:19.194Z,33.00
2018-07-06T14:10:47.369Z,31.57
2018-07-06T14:13:15.397Z,31.07
2018-07-06T14:15:43.725Z,29.90
2018-07-06T14:18:11.769Z,29.18
2018-07-06T14:20:40.311Z,27.30
2018-07-06T14:23:08.433Z,23.65
2018-07-06T14:25:36.737Z,24.02
2018-07-06T14:28:04.853Z,24.25
2018-07-06T14:30:34.947Z,20.85
2018-07-06T14:33:03.385Z,20.40
2018-07-06T14:35:31.782Z,20.10
2018-07-06T14:38:00.029Z,20.50
2018-07-06T14:40:28.784Z,21.25
2018-07-06T14:42:57.021Z,16.30
2018-07-06T14:45:34.519Z,21.27
2018-07-06T14:48:04.904Z,15.70
2018-07-06T14:50:34.590Z,16.40
2018-07-06T14:53:05.522Z,16.25
2018-07-06T14:55:36.648Z,14.95
2018-07-06T14:58:08.680Z,13.30
2018-07-06T15:00:39.173Z,12.63
2018-07-06T15:03:10.640Z,10.65
2018-07-06T15:05:41.427Z,9.15
2018-07-06T15:08:11.847Z,8.60
2018-07-06T15:10:42.137Z,7.00
2018-07-06T15:13:22.993Z,7.75
2018-07-06T15:15:53.362Z,7.15
2018-07-06T15:18:24.285Z,7.42
2018-07-06T15:20:53.240Z,6.90
2018-07-06T15:23:21.633Z,6.67
2018-07-06T15:25:50.465Z,6.30
2018-07-06T15:28:18.640Z,7.12
2018-07-06T15:30:46.931Z,6.60
2018-07-06T15:33:15.128Z,7.97
2018-07-06T15:35:43.319Z,8.03
2018-07-06T15:38:11.898Z,6.78
2018-07-06T15:40:42.041Z,7.80
2018-07-06T15:43:12.381Z,6.80
2018-07-06T15:45:46.506Z,6.83
2018-07-06T15:48:16.892Z,7.53
2018-07-06T15:50:47.855Z,7.40
2018-07-06T15:53:18.566Z,7.60
2018-07-06T15:55:49.575Z,7.50
2018-07-06T15:58:21.143Z,7.10
2018-07-06T16:00:49.016Z,7.22
2018-07-06T16:03:17.164Z,6.75
2018-07-06T16:05:45.343Z,7.58
2018-07-06T16:08:13.421Z,7.33
2018-07-06T16:10:42.153Z,8.20
2018-07-06T16:13:11.606Z,7.40
2018-07-06T16:15:39.892Z,9.60
2018-07-06T16:18:08.090Z,10.20
2018-07-06T16:20:36.144Z,8.50
2018-07-06T16:23:04.496Z,6.70
2018-07-06T16:25:32.604Z,6.70
2018-07-06T16:28:01.061Z,6.92
2018-07-06T16:30:29.841Z,7.55
2018-07-06T16:32:59.232Z,6.95
2018-07-06T16:35:27.345Z,6.87
2018-07-06T16:37:55.626Z,7.40
2018-07-06T16:40:23.901Z,8.35
2018-07-06T16:42:52.736Z,8.18
2018-07-06T16:45:20.772Z,9.45
2018-07-06T16:47:48.820Z,9.33
2018-07-06T16:50:16.919Z,7.50
2018-07-06T16:52:45.208Z,8.00
2018-07-06T16:55:13.278Z,10.30
2018-07-06T16:57:41.604Z,10.40
2018-07-06T17:00:09.835Z,9.95
2018-07-06T17:02:37.977Z,9.70
2018-07-06T17:05:06.201Z,9.23
2018-07-06T17:07:39.756Z,9.60
2018-07-06T17:10:25.336Z,9.85
2018-07-06T17:12:54.261Z,9.90
2018-07-06T17:15:22.356Z,10.10
2018-07-06T17:17:53.776Z,10.30
2018-07-06T17:20:24.560Z,10.25
2018-07-06T17:22:55.214Z,9.73
2018-07-06T17:25:25.576Z,9.35
2018-07-06T17:27:56.718Z,11.00
2018-07-06T17:30:26.860Z,10.15
2018-07-06T17:32:57.655Z,10.72
2018-07-06T17:35:29.269Z,11.30
2018-07-06T17:38:00.311Z,12.33
2018-07-06T17:40:31.274Z,12.63
2018-07-06T17:43:02.726Z,13.22
2018-07-06T17:45:34.094Z,13.78
2018-07-06T17:48:04.573Z,13.80
2018-07-06T17:50:35.349Z,13.83
2018-07-06T17:53:05.700Z,12.70
2018-07-06T17:55:37.362Z,13.75
2018-07-06T17:58:08.705Z,13.80
2018-07-06T18:00:40.218Z,13.40
2018-07-06T18:03:12.459Z,13.15
2018-07-06T18:05:43.222Z,13.40
2018-07-06T18:08:14.300Z,13.00
2018-07-06T18:10:45.265Z,13.53
2018-07-06T18:13:18.706Z,14.05
2018-07-06T18:15:51.165Z,13.40
2018-07-06T18:18:22.314Z,12.00
2018-07-06T18:20:53.547Z,12.25
2018-07-06T18:23:25.359Z,12.60
2018-07-06T18:25:55.911Z,13.03
2018-07-06T18:28:26.584Z,12.98
2018-07-06T18:30:58.195Z,13.58
2018-07-06T18:33:27.017Z,12.25
2018-07-06T18:35:58.504Z,12.80
2018-07-06T18:38:29.408Z,13.55
2018-07-06T18:40:57.603Z,13.40
2018-07-06T18:43:27.847Z,13.35
2018-07-06T18:45:58.653Z,14.15
2018-07-06T18:48:29.640Z,14.00
2018-07-06T18:50:59.676Z,14.10
2018-07-06T18:53:30.573Z,14.68
2018-07-06T18:56:02.620Z,15.20
2018-07-06T18:58:33.650Z,14.68
2018-07-06T19:01:04.929Z,15.20
2018-07-06T19:03:37.842Z,14.40
2018-07-06T19:06:09.016Z,15.40
2018-07-06T19:08:41.011Z,15.30
2018-07-06T19:11:15.250Z,14.68
2018-07-06T19:13:45.912Z,14.93
2018-07-06T19:16:17.706Z,16.27
2018-07-06T19:18:49.685Z,15.72
2018-07-06T19:21:20.941Z,16.05
2018-07-06T19:23:53.994Z,16.53
2018-07-06T19:26:25.797Z,15.68
2018-07-06T19:28:57.293Z,14.65
2018-07-06T19:31:29.148Z,13.58
2018-07-06T19:33:59.833Z,13.62
2018-07-06T19:36:30.051Z,12.47
2018-07-06T19:39:00.748Z,12.85
2018-07-06T19:41:32.162Z,12.50
2018-07-06T19:44:05.403Z,11.18
2018-07-06T19:46:37.244Z,11.50
2018-07-06T19:49:09.223Z,11.12
2018-07-06T19:51:41.645Z,11.10
2018-07-06T19:54:14.036Z,10.85
2018-07-06T19:56:47.103Z,10.80
2018-07-06T19:59:18.853Z,11.03
2018-07-06T20:01:51.816Z,10.60
2018-07-06T20:04:22.988Z,10.78
2018-07-06T20:06:54.338Z,10.33
2018-07-06T20:09:24.839Z,10.20
2018-07-06T20:11:52.917Z,9.58
2018-07-06T20:14:21.030Z,9.70
2018-07-06T20:16:49.069Z,9.95
2018-07-06T20:19:17.242Z,10.10
2018-07-06T20:21:45.133Z,9.90
2018-07-06T20:24:13.494Z,9.93
2018-07-06T20:26:41.700Z,10.03
2018-07-06T20:29:09.741Z,10.60
2018-07-06T20:31:37.823Z,10.88
2018-07-06T20:34:06.193Z,11.00
2018-07-06T20:36:34.437Z,10.28
2018-07-06T20:39:03.140Z,11.33
2018-07-06T20:41:31.279Z,10.40
2018-07-06T20:43:59.426Z,10.00
2018-07-06T20:46:27.725Z,10.70
2018-07-06T20:48:55.752Z,8.90
2018-07-06T20:51:23.944Z,9.70
2018-07-06T20:53:52.484Z,12.15
2018-07-06T20:56:20.601Z,14.28
2018-07-06T20:58:48.703Z,14.68
2018-07-06T21:01:16.858Z,16.17
2018-07-06T21:03:44.941Z,16.90
2018-07-06T21:06:13.005Z,16.73
2018-07-06T21:08:41.264Z,17.27
2018-07-06T21:11:09.368Z,16.70
2018-07-06T21:13:37.412Z,18.07
2018-07-06T21:16:05.820Z,18.57
2018-07-06T21:18:33.952Z,16.82
2018-07-06T21:21:01.862Z,18.02
2018-07-06T21:23:30.026Z,17.77
2018-07-06T21:25:58.277Z,17.05
2018-07-06T21:28:26.284Z,16.40
2018-07-06T21:30:54.564Z,15.70
2018-07-06T21:33:22.631Z,16.32
2018-07-06T21:35:50.981Z,17.32
2018-07-06T21:38:18.853Z,15.40
2018-07-06T21:40:47.064Z,16.20
2018-07-06T21:43:15.133Z,17.07
2018-07-06T21:45:43.628Z,17.57
2018-07-06T21:48:11.768Z,16.73
2018-07-06T21:50:39.970Z,17.37
2018-07-06T21:53:08.322Z,18.27
2018-07-06T21:55:36.538Z,16.90
2018-07-06T21:58:04.569Z,16.95
2018-07-06T22:00:39.891Z,16.82
2018-07-06T22:03:09.026Z,17.30
2018-07-06T22:05:37.914Z,17.60
2018-07-06T22:08:06.826Z,17.75
2018-07-06T22:10:35.683Z,18.50
2018-07-06T22:13:04.805Z,17.87
2018-07-06T22:15:44.600Z,17.65
2018-07-06T22:18:15.060Z,18.98
2018-07-06T22:20:44.495Z,18.17
2018-07-06T22:23:13.053Z,19.35
2018-07-06T22:25:41.564Z,19.87
2018-07-06T22:28:09.828Z,19.65
2018-07-06T22:30:38.125Z,20.10
2018-07-06T22:33:06.291Z,19.77
2018-07-06T22:35:34.544Z,19.62
2018-07-06T22:38:02.742Z,18.90
2018-07-06T22:40:30.815Z,17.82
2018-07-06T22:42:58.989Z,17.85
2018-07-06T22:45:27.101Z,18.25
2018-07-06T22:47:55.217Z,19.87
2018-07-06T22:50:23.442Z,18.42
2018-07-06T22:52:51.456Z,18.50
2018-07-06T22:55:19.556Z,19.62
2018-07-06T22:57:47.608Z,19.10
2018-07-06T23:00:15.596Z,19.65
2018-07-06T23:02:43.787Z,18.75
2018-07-06T23:05:14.068Z,18.70
2018-07-06T23:07:41.986Z,18.70
2018-07-06T23:10:10.342Z,19.98
2018-07-06T23:12:39.297Z,19.50
2018-07-06T23:15:07.422Z,19.80
2018-07-06T23:17:35.756Z,20.23
2018-07-06T23:20:04.388Z,20.00
2018-07-06T23:23:11.140Z,22.10
2018-07-06T23:25:40.116Z,21.95
2018-07-06T23:28:08.319Z,21.57
2018-07-06T23:30:36.215Z,21.90
2018-07-06T23:33:05.315Z,21.20
2018-07-06T23:35:33.573Z,21.95
2018-07-06T23:38:01.866Z,21.73
2018-07-06T23:40:30.129Z,20.12
2018-07-06T23:42:58.520Z,20.62
2018-07-06T23:45:26.724Z,20.50
2018-07-06T23:47:54.861Z,20.95
2018-07-06T23:50:23.263Z,19.87
2018-07-06T23:52:51.516Z,20.50
2018-07-06T23:55:19.686Z,21.33
2018-07-06T23:57:48.149Z,20.48
